Time;durP1;ratioP1;P1;durP2;ratioP2;P2;SDS_P1;SDS_P2;PMS_P1;PMS_P2;Temp;Humidity;BMP_temperature;BMP_pressure;BME280_temperature;BME280_humidity;BME280_pressure;Samples;Min_cycle;Max_cycle;Signal;HPM_P1;HPM_P2
2021/03/25 00:00:30;;;;;;;19.74;9.67;;;;;;;-0.46;57.13;99482.62;325048;113;2624014;-71
2021/03/25 00:01:38;;;;;;;19.36;8.83;;;;;;;-0.48;57.57;99482.77;349329;112;1962821;-71
2021/03/25 00:02:44;;;;;;;18.94;9.21;;;;;;;-0.50;57.60;99481.23;320898;112;2223924;-71
2021/03/25 00:03:52;;;;;;;26.89;10.11;;;;;;;-0.53;57.76;99481.49;357373;113;1962029;-71
2021/03/25 00:04:58;;;;;;;19.69;9.26;;;;;;;-0.55;57.89;99478.16;339922;110;2320966;-70
2021/03/25 00:06:04;;;;;;;21.84;9.00;;;;;;;-0.57;57.84;99474.80;334876;108;1961934;-70
2021/03/25 00:07:09;;;;;;;27.69;11.19;;;;;;;-0.57;57.68;99475.64;355405;112;1961958;-71
2021/03/25 00:08:18;;;;;;;33.02;11.14;;;;;;;-0.57;57.55;99469.50;351118;112;1961962;-71
2021/03/25 00:09:39;;;;;;;24.03;10.56;;;;;;;-0.57;57.50;99475.64;341384;116;1961997;-70
2021/03/25 00:10:46;;;;;;;25.60;8.28;;;;;;;-0.58;57.47;99468.67;318119;104;2123675;-71
2021/03/25 00:11:52;;;;;;;18.74;8.34;;;;;;;-0.56;57.49;99471.16;354105;111;1962023;-70
2021/03/25 00:12:59;;;;;;;16.44;7.76;;;;;;;-0.53;57.44;99468.22;366889;108;1961945;-70
2021/03/25 00:14:04;;;;;;;18.09;7.96;;;;;;;-0.51;57.35;99467.11;354165;108;1961977;-71
2021/03/25 00:15:11;;;;;;;17.48;7.64;;;;;;;-0.49;57.32;99465.16;366987;108;1961917;-70
2021/03/25 00:16:17;;;;;;;17.19;8.10;;;;;;;-0.48;57.43;99468.64;336730;109;2576932;-70
2021/03/25 00:17:23;;;;;;;16.19;7.62;;;;;;;-0.49;57.37;99465.16;364225;108;1961957;-72
2021/03/25 00:18:29;;;;;;;17.31;7.81;;;;;;;-0.48;57.21;99468.64;365979;108;1962002;-70
2021/03/25 00:19:35;;;;;;;15.96;7.99;;;;;;;-0.48;57.16;99471.30;359228;108;2903991;-70
2021/03/25 00:20:42;;;;;;;14.16;7.52;;;;;;;-0.49;57.13;99465.16;355663;108;1963865;-70
2021/03/25 00:21:48;;;;;;;14.35;6.54;;;;;;;-0.50;57.22;99471.45;367765;108;1961933;-70
2021/03/25 00:22:54;;;;;;;14.43;6.70;;;;;;;-0.49;57.15;99459.02;333978;108;2952953;-70
2021/03/25 00:24:00;;;;;;;13.78;6.78;;;;;;;-0.48;57.04;99460.69;365161;108;1961967;-71
2021/03/25 00:25:08;;;;;;;11.26;6.39;;;;;;;-0.49;57.09;99464.33;369612;108;1962947;-71
2021/03/25 00:26:14;;;;;;;17.32;6.48;;;;;;;-0.49;57.02;99457.20;367452;107;1961947;-71
2021/03/25 00:27:19;;;;;;;14.79;7.08;;;;;;;-0.48;56.95;99458.89;366077;108;1963959;-71
2021/03/25 00:28:25;;;;;;;19.63;9.94;;;;;;;-0.47;56.99;99460.56;366254;108;1961968;-70
2021/03/25 00:29:31;;;;;;;20.01;10.23;;;;;;;-0.47;57.11;99465.03;337971;108;2556889;-71
2021/03/25 00:30:39;;;;;;;13.20;6.83;;;;;;;-0.48;57.26;99466.86;360677;110;1962965;-70
2021/03/25 00:31:45;;;;;;;15.23;8.25;;;;;;;-0.53;57.38;99460.27;366850;107;1961938;-69
2021/03/25 00:32:51;;;;;;;16.58;8.15;;;;;;;-0.54;57.50;99461.25;357081;112;1962008;-70
2021/03/25 00:33:58;;;;;;;15.63;7.60;;;;;;;-0.55;57.53;99460.42;355890;112;1963991;-71
2021/03/25 00:35:05;;;;;;;19.68;8.32;;;;;;;-0.57;57.59;99465.02;325392;112;2577989;-70
2021/03/25 00:36:13;;;;;;;18.04;9.26;;;;;;;-0.57;57.71;99466.84;357218;112;1961947;-70
2021/03/25 00:37:18;;;;;;;18.47;8.42;;;;;;;-0.58;57.67;99462.50;331573;113;1962076;-70
2021/03/25 00:38:23;;;;;;;18.12;8.22;;;;;;;-0.59;57.94;99464.31;348590;114;1961994;-70
2021/03/25 00:39:35;;;;;;;16.86;8.21;;;;;;;-0.60;57.96;99459.17;348184;114;1961917;-71
2021/03/25 00:40:41;;;;;;;;;;;;;;;-3.64;57.63;98967.47;338367;107;2106712;-70
2021/03/25 00:41:46;;;;;;;18.02;7.63;;;;;;;-0.60;57.89;99461.83;374465;107;1960984;-71
2021/03/25 00:42:52;;;;;;;16.29;7.77;;;;;;;-0.60;57.90;99459.17;372190;107;1962913;-70
2021/03/25 00:43:58;;;;;;;17.26;9.08;;;;;;;-0.60;57.90;99457.35;374340;107;1961944;-70
2021/03/25 00:45:07;;;;;;;15.72;7.89;;;;;;;-0.59;57.83;99463.48;346966;107;2522039;-70
2021/03/25 00:46:13;;;;;;;17.65;9.30;;;;;;;-0.58;57.68;99466.02;371360;107;1962963;-71
2021/03/25 00:47:18;;;;;;;22.97;10.37;;;;;;;-0.57;57.77;99469.50;349555;106;1962216;-70
2021/03/25 00:48:25;;;;;;;16.41;8.22;;;;;;;-0.56;58.06;99471.16;357335;111;1961958;-69
2021/03/25 00:49:34;;;;;;;19.32;8.04;;;;;;;-0.56;57.94;99468.52;357804;111;1961883;-70
2021/03/25 00:50:46;;;;;;;19.82;7.97;;;;;;;-0.55;57.73;99463.08;357980;111;1961944;-70
2021/03/25 00:51:51;;;;;;;19.22;8.64;;;;;;;-0.54;57.71;99466.56;346185;111;1961995;-70
2021/03/25 00:52:58;;;;;;;18.58;9.72;;;;;;;-0.53;57.75;99471.74;357347;111;1961990;-70
2021/03/25 00:54:05;;;;;;;23.59;10.28;;;;;;;-0.52;57.71;99468.09;320549;112;2964998;-72
2021/03/25 00:55:12;;;;;;;20.30;11.10;;;;;;;-0.51;58.01;99463.62;354889;112;1962030;-71
2021/03/25 00:56:18;;;;;;;21.08;10.60;;;;;;;-0.51;58.01;99460.97;357316;111;1961993;-71
2021/03/25 00:57:23;;;;;;;21.21;11.57;;;;;;;-0.53;58.09;99465.57;335960;111;1963925;-70
2021/03/25 00:58:35;;;;;;;23.08;11.12;;;;;;;-0.55;58.18;99456.94;358538;111;1962050;-71
2021/03/25 00:59:40;;;;;;;18.90;10.20;;;;;;;-0.56;58.19;99460.55;356893;111;1962004;-70
2021/03/25 01:01:00;;;;;;;22.77;11.84;;;;;;;-0.60;58.55;99459.17;358459;111;1969993;-70
2021/03/25 01:02:06;;;;;;;20.07;9.68;;;;;;;-0.62;58.68;99461.12;329556;109;2096089;-71
2021/03/25 01:03:13;;;;;;;17.67;9.12;;;;;;;-0.63;58.86;99459.45;367198;109;1962039;-71
2021/03/25 01:04:30;;;;;;;21.72;10.26;;;;;;;-0.64;58.66;99465.72;325865;109;2151223;-70
2021/03/25 01:05:36;;;;;;;19.65;10.54;;;;;;;-0.65;58.86;99459.58;355856;114;1962954;-70
2021/03/25 01:06:43;;;;;;;19.12;10.41;;;;;;;-0.66;58.86;99457.92;354720;114;1961968;-72
2021/03/25 01:08:29;;;;;;;20.07;10.67;;;;;;;-0.65;58.88;99467.54;329750;116;1963925;-71
2021/03/25 01:09:43;;;;;;;17.58;8.02;;;;;;;-0.66;59.08;99460.57;318707;114;2601078;-71
2021/03/25 01:10:54;;;;;;;22.52;10.14;;;;;;;-0.65;58.78;99456.92;347572;116;1961981;-71
2021/03/25 01:12:05;;;;;;;22.14;9.98;;;;;;;-0.65;58.79;99459.58;349221;116;1962026;-70
2021/03/25 01:13:24;;;;;;;18.50;10.38;;;;;;;-0.65;58.86;99464.89;350575;116;1961992;-70
2021/03/25 01:14:32;;;;;;;19.77;9.81;;;;;;;-0.64;58.88;99457.76;303270;116;2230797;-70
2021/03/25 01:15:38;;;;;;;20.44;9.84;;;;;;;-0.64;58.83;99465.72;354485;114;1961995;-70
2021/03/25 01:16:45;;;;;;;22.28;11.43;;;;;;;-0.65;58.79;99467.54;341383;114;1962836;-70
2021/03/25 01:18:05;;;;;;;26.65;13.45;;;;;;;-0.65;59.10;99467.54;353440;114;1961998;-70
2021/03/25 01:19:28;;;;;;;25.63;13.17;;;;;;;-0.68;59.12;99466.00;354478;111;1961939;-70
2021/03/25 01:20:39;;;;;;;21.78;11.38;;;;;;;-0.69;59.15;99469.64;357722;112;1962938;-70
2021/03/25 01:21:46;;;;;;;24.91;12.74;;;;;;;-0.70;59.68;99467.12;352519;112;1962927;-71
2021/03/25 01:22:52;;;;;;;23.31;12.29;;;;;;;-0.72;59.31;99464.59;344517;114;1964041;-70
2021/03/25 01:23:59;;;;;;;24.58;12.23;;;;;;;-0.74;59.38;99469.22;346276;114;1961883;-70
2021/03/25 01:25:08;;;;;;;21.83;12.72;;;;;;;-0.75;59.51;99467.52;351622;112;1962978;-70
2021/03/25 01:26:15;;;;;;;18.79;9.46;;;;;;;-0.76;59.69;99468.52;308186;114;2110715;-70
2021/03/25 01:27:21;;;;;;;17.45;9.04;;;;;;;-0.77;59.76;99468.64;339505;114;1961998;-70
2021/03/25 01:28:27;;;;;;;14.76;8.09;;;;;;;-0.85;59.75;99453.41;352971;112;1963004;-71
2021/03/25 01:29:44;;;;;;;15.78;8.46;;;;;;;-0.75;59.78;99470.17;309498;112;2204369;-70
2021/03/25 01:30:50;;;;;;;20.87;9.18;;;;;;;-0.73;59.63;99467.40;360531;103;1962162;-69
2021/03/25 01:31:56;;;;;;;17.78;9.14;;;;;;;-0.72;59.74;99466.41;322952;109;2754931;-70
2021/03/25 01:33:06;;;;;;;15.59;7.75;;;;;;;-0.72;59.85;99461.11;360501;111;1961952;-70
2021/03/25 01:34:19;;;;;;;18.32;8.74;;;;;;;-0.73;59.79;99468.23;359640;111;1961973;-70
2021/03/25 01:35:27;;;;;;;14.81;6.94;;;;;;;-0.73;59.83;99459.44;335088;108;1963940;-70
2021/03/25 01:36:34;;;;;;;13.72;7.40;;;;;;;-0.72;59.60;99459.28;328571;111;2959044;-70
2021/03/25 01:37:41;;;;;;;14.54;7.02;;;;;;;-0.72;59.60;99461.11;360928;107;1963023;-70
2021/03/25 01:38:47;;;;;;;14.81;7.92;;;;;;;-0.71;59.55;99463.63;361885;109;1961890;-70
2021/03/25 01:39:55;;;;;;;15.31;7.21;;;;;;;-0.72;59.54;99456.62;359787;110;1961039;-71
2021/03/25 01:41:03;;;;;;;15.43;7.38;;;;;;;-0.73;59.45;99465.58;332304;108;2955787;-70
2021/03/25 01:42:26;;;;;;;12.64;7.00;;;;;;;-0.74;59.68;99463.91;365246;110;1960971;-70
2021/03/25 01:43:40;;;;;;;12.63;6.02;;;;;;;-0.75;59.56;99459.56;361515;109;1961918;-70
2021/03/25 01:44:45;;;;;;;13.37;6.49;;;;;;;-0.76;59.52;99460.55;360934;109;1962974;-70
2021/03/25 01:45:55;;;;;;;13.23;6.55;;;;;;;-0.84;59.61;99446.32;363768;109;1969011;-70
2021/03/25 01:47:05;;;;;;;14.12;7.29;;;;;;;-0.79;59.54;99460.84;361744;109;1962915;-70
2021/03/25 01:48:11;;;;;;;13.38;6.46;;;;;;;-0.80;59.66;99463.61;355718;113;1961913;-70
2021/03/25 01:49:18;;;;;;;11.66;6.34;;;;;;;-0.82;60.02;99460.25;344713;111;2261867;-70
2021/03/25 01:50:25;;;;;;;13.88;6.76;;;;;;;-0.84;59.66;99462.23;364154;109;1961844;-70
2021/03/25 01:51:44;;;;;;;14.43;6.24;;;;;;;-0.85;59.63;99461.37;335531;112;2854911;-71
2021/03/25 01:53:10;;;;;;;12.64;6.58;;;;;;;-0.86;59.69;99461.52;320174;109;2909744;-71
2021/03/25 01:54:50;;;;;;;14.12;7.50;;;;;;;-0.89;59.76;99467.94;347954;109;1960848;-70
2021/03/25 01:56:09;;;;;;;11.22;5.91;;;;;;;-0.92;59.83;99466.40;365098;111;1960822;-70
2021/03/25 01:57:31;;;;;;;12.52;6.27;;;;;;;-0.94;60.15;99464.86;354314;109;1960755;-70
2021/03/25 01:58:52;;;;;;;13.63;5.96;;;;;;;-0.95;59.92;99468.50;364477;111;1960945;-70
2021/03/25 02:00:26;;;;;;;11.58;5.76;;;;;;;-0.97;59.91;99468.63;352391;109;1964839;-70
2021/03/25 02:01:42;;;;;;;13.78;6.84;;;;;;;-0.98;60.14;99474.05;360226;111;1960746;-70
2021/03/25 02:02:58;;;;;;;11.79;5.50;;;;;;;-1.01;60.17;99467.20;362647;109;1960923;-70
2021/03/25 02:04:21;;;;;;;11.49;5.14;;;;;;;-1.02;60.09;99470.84;339886;112;2246912;-70
2021/03/25 02:05:44;;;;;;;12.23;5.22;;;;;;;-1.04;60.02;99471.95;343701;117;1961057;-70
2021/03/25 02:07:03;;;;;;;12.44;5.99;;;;;;;-1.07;60.39;99467.77;343336;115;1961998;-70
2021/03/25 02:08:46;;;;;;;11.43;5.59;;;;;;;-1.12;60.54;99470.81;318594;116;1961028;-70
2021/03/25 02:09:59;;;;;;;10.64;4.81;;;;;;;-1.14;60.41;99461.31;357680;111;1961930;-70
2021/03/25 02:11:41;;;;;;;12.12;5.33;;;;;;;-1.14;60.39;99463.97;358026;109;1969984;-70
2021/03/25 02:13:24;;;;;;;10.76;5.11;;;;;;;-1.16;60.27;99466.77;355078;109;1960926;-70
2021/03/25 02:14:43;;;;;;;11.86;5.47;;;;;;;-1.17;60.61;99466.90;343497;111;2374921;-71
2021/03/25 02:16:05;;;;;;;12.82;5.76;;;;;;;-1.22;60.56;99459.34;335418;109;2516921;-71
2021/03/25 02:17:32;;;;;;;11.06;5.49;;;;;;;-1.26;60.65;99460.61;319184;109;2809142;-71
2021/03/25 02:18:56;;;;;;;11.29;5.51;;;;;;;-1.25;60.70;99464.92;315810;109;2866996;-71
2021/03/25 02:20:23;;;;;;;10.45;4.60;;;;;;;-1.29;60.87;99455.58;341001;111;2396957;-70
2021/03/25 02:21:50;;;;;;;9.69;4.82;;;;;;;-1.30;60.62;99459.19;362824;109;1960836;-69
2021/03/25 02:23:16;;;;;;;9.92;4.77;;;;;;;-1.31;60.62;99456.69;319486;109;2170912;-70
2021/03/25 02:24:32;;;;;;;9.51;4.59;;;;;;;-1.36;60.84;99463.22;361402;109;1960840;-70
2021/03/25 02:25:43;;;;;;;13.54;5.87;;;;;;;-1.37;60.96;99455.42;345826;109;2228031;-70
2021/03/25 02:27:28;;;;;;;10.12;4.84;;;;;;;-1.38;60.91;99459.86;362354;110;1961080;-70
2021/03/25 02:28:49;;;;;;;10.64;4.74;;;;;;;-1.41;60.82;99465.43;351079;109;1960916;-71
2021/03/25 02:30:14;;;;;;;10.26;4.64;;;;;;;-1.41;61.08;99454.00;361948;109;1962851;-70
2021/03/25 02:31:25;;;;;;;10.07;4.63;;;;;;;-1.43;60.82;99461.23;328723;111;2626973;-70
2021/03/25 02:32:54;;;;;;;13.82;4.41;;;;;;;-1.45;60.76;99457.91;362117;110;1963962;-70
2021/03/25 02:34:06;;;;;;;8.93;4.94;;;;;;;-1.45;60.81;99460.56;362536;111;1961040;-71
2021/03/25 02:35:15;;;;;;;9.81;4.78;;;;;;;-1.49;60.81;99465.27;357794;113;1961981;-70
2021/03/25 02:36:30;;;;;;;11.45;4.73;;;;;;;-1.52;60.78;99462.05;357081;111;1960843;-70
2021/03/25 02:37:38;;;;;;;10.03;5.01;;;;;;;-1.56;61.30;99457.03;363167;111;1960880;-70
2021/03/25 02:38:50;;;;;;;12.97;5.32;;;;;;;-1.57;61.00;99463.28;357260;109;1961819;-70
2021/03/25 02:40:15;;;;;;;11.93;6.06;;;;;;;-1.59;61.03;99459.95;362606;111;1961084;-70
2021/03/25 02:41:39;;;;;;;9.98;5.00;;;;;;;-1.62;61.14;99456.71;348471;108;2874960;-70
2021/03/25 02:42:55;;;;;;;10.72;4.45;;;;;;;-1.64;61.42;99459.52;364049;108;1960797;-69
2021/03/25 02:44:04;;;;;;;9.23;4.61;;;;;;;-1.65;61.33;99463.11;341455;108;1960954;-70
2021/03/25 02:45:17;;;;;;;9.16;5.03;;;;;;;-1.65;61.25;99467.58;338229;109;1960962;-69
2021/03/25 02:46:31;;;;;;;11.42;5.91;;;;;;;-1.64;61.47;99458.64;325993;111;1961937;-70
2021/03/25 02:47:41;;;;;;;11.31;5.76;;;;;;;-1.66;61.45;99460.61;311067;115;2962863;-70
2021/03/25 02:48:51;;;;;;;11.77;5.31;;;;;;;-1.65;61.64;99462.28;342542;113;2269818;-70
2021/03/25 02:50:07;;;;;;;10.50;5.99;;;;;;;-1.66;61.47;99460.61;329601;113;2522714;-70
2021/03/25 02:51:25;;;;;;;12.73;5.85;;;;;;;-1.66;61.58;99466.74;344226;113;1961996;-70
2021/03/25 02:52:38;;;;;;;13.14;5.61;;;;;;;-1.69;61.70;99461.72;348741;115;1963048;-70
2021/03/25 02:53:47;;;;;;;13.64;5.89;;;;;;;-1.70;61.83;99461.84;334376;112;2855951;-70
2021/03/25 02:54:53;;;;;;;11.93;5.77;;;;;;;-1.72;61.57;99469.06;353266;113;1962029;-70
2021/03/25 02:56:18;;;;;;;11.36;6.02;;;;;;;-1.74;61.43;99471.03;315277;114;1985977;-70
2021/03/25 02:57:31;;;;;;;9.93;5.18;;;;;;;-1.75;61.84;99466.69;362326;111;1961958;-71
2021/03/25 02:58:41;;;;;;;10.89;5.17;;;;;;;-1.77;61.88;99472.13;329948;108;2635955;-71
2021/03/25 02:59:49;;;;;;;12.81;5.59;;;;;;;-1.79;61.88;99460.83;334680;110;2570907;-70
2021/03/25 03:01:05;;;;;;;12.35;4.92;;;;;;;-1.79;61.90;99464.31;363346;108;1961982;-71
2021/03/25 03:02:30;;;;;;;13.11;6.22;;;;;;;-1.80;61.84;99460.00;351347;108;2223028;-70
2021/03/25 03:03:42;;;;;;;15.22;6.31;;;;;;;-1.80;61.81;99464.42;363554;110;1962056;-69
2021/03/25 03:04:57;;;;;;;11.13;5.98;;;;;;;-1.81;61.93;99460.12;362020;108;1962979;-70
2021/03/25 03:06:05;;;;;;;11.40;5.88;;;;;;;-1.82;61.71;99461.93;363009;108;1961951;-70
2021/03/25 03:07:17;;;;;;;12.17;6.27;;;;;;;-1.83;62.05;99465.53;362762;109;1961955;-71
2021/03/25 03:08:31;;;;;;;12.63;5.72;;;;;;;-1.85;62.06;99471.95;323480;108;2765936;-70
2021/03/25 03:09:41;;;;;;;15.70;6.84;;;;;;;-1.85;62.19;99461.37;328223;108;2049831;-70
2021/03/25 03:11:01;;;;;;;13.60;6.16;;;;;;;-1.86;61.92;99467.61;360891;111;1961946;-70
2021/03/25 03:12:14;;;;;;;14.28;6.56;;;;;;;-1.89;61.89;99467.87;364384;108;1962903;-71
2021/03/25 03:13:23;;;;;;;14.23;6.18;;;;;;;-1.90;62.19;99464.40;317900;111;2779971;-70
2021/03/25 03:14:36;;;;;;;12.03;5.77;;;;;;;-1.91;62.25;99465.34;321637;111;2082632;-70
2021/03/25 03:16:00;;;;;;;11.35;6.22;;;;;;;-1.92;62.35;99462.86;365597;111;1961998;-69
2021/03/25 03:17:13;;;;;;;13.29;6.72;;;;;;;-1.94;62.21;99462.14;363033;111;1961985;-69
2021/03/25 03:18:25;;;;;;;13.72;7.41;;;;;;;-1.96;62.96;99469.36;362193;111;1961899;-69
2021/03/25 03:19:56;;;;;;;11.75;5.44;;;;;;;-1.99;62.69;99468.65;348277;110;1961912;-70
2021/03/25 03:21:09;;;;;;;12.13;5.81;;;;;;;-2.00;62.90;99469.63;359292;111;1962031;-70
2021/03/25 03:22:16;;;;;;;14.03;6.74;;;;;;;-2.01;62.81;99475.08;353130;108;1963979;-71
2021/03/25 03:23:35;;;;;;;12.33;6.16;;;;;;;-2.03;63.05;99475.19;360713;110;1961933;-70
2021/03/25 03:24:41;;;;;;;11.75;6.87;;;;;;;-2.04;62.92;99477.95;364056;109;1963024;-70
2021/03/25 03:25:48;;;;;;;12.63;6.43;;;;;;;-2.07;63.05;99479.05;346562;110;2327936;-70
2021/03/25 03:27:01;;;;;;;12.71;6.08;;;;;;;-2.09;63.20;99475.72;361296;109;1962975;-70
2021/03/25 03:28:16;;;;;;;13.19;6.41;;;;;;;-2.10;63.21;99473.19;343989;111;2214028;-71
2021/03/25 03:29:25;;;;;;;12.98;6.28;;;;;;;-2.11;63.40;99469.71;340432;110;1963980;-70
2021/03/25 03:30:44;;;;;;;15.73;6.36;;;;;;;-2.12;63.53;99470.66;339218;108;1964026;-70
2021/03/25 03:32:26;;;;;;;11.75;6.00;;;;;;;-2.13;63.69;99474.29;362165;109;1961980;-70
2021/03/25 03:33:43;;;;;;;11.09;5.68;;;;;;;-2.12;63.60;99475.12;362680;109;1961945;-70
2021/03/25 03:34:53;;;;;;;12.69;6.49;;;;;;;-2.13;63.68;99474.29;362436;110;1961980;-70
2021/03/25 03:36:06;;;;;;;12.01;5.97;;;;;;;-2.13;63.77;99471.64;348889;113;1962072;-70
2021/03/25 03:37:16;;;;;;;13.62;6.87;;;;;;;-2.15;63.68;99476.22;330034;112;2459036;-69
2021/03/25 03:38:33;;;;;;;14.12;6.03;;;;;;;-2.15;63.87;99473.57;351892;114;1961979;-70
2021/03/25 03:39:42;;;;;;;12.32;6.08;;;;;;;-2.15;64.31;99472.73;313639;113;2751892;-70
2021/03/25 03:40:53;;;;;;;12.26;5.90;;;;;;;-2.15;64.05;99473.57;312072;114;2728016;-69
2021/03/25 03:42:09;;;;;;;12.67;5.93;;;;;;;-2.15;64.33;99470.09;356727;111;1962009;-69
2021/03/25 03:43:16;;;;;;;12.45;6.13;;;;;;;-2.15;64.06;99464.80;354740;109;1964987;-71
2021/03/25 03:44:28;;;;;;;12.82;6.21;;;;;;;-2.15;64.08;99467.45;351846;110;1964994;-70
2021/03/25 03:45:37;;;;;;;13.06;6.42;;;;;;;-2.16;64.37;99466.61;351692;109;1961960;-69
2021/03/25 03:46:47;;;;;;;10.74;4.73;;;;;;;-2.18;64.53;99471.19;362037;111;1961984;-70
2021/03/25 03:47:56;;;;;;;13.14;6.36;;;;;;;-2.18;64.40;99476.48;362481;109;1970015;-70
2021/03/25 03:49:09;;;;;;;12.75;6.15;;;;;;;-2.18;64.63;99473.83;362113;109;1961983;-71
2021/03/25 03:50:20;;;;;;;12.93;6.14;;;;;;;-2.18;64.58;99475.64;363713;111;1961995;-71
2021/03/25 03:51:30;;;;;;;13.91;6.03;;;;;;;-2.18;64.53;99470.36;361904;109;1961905;-70
2021/03/25 03:52:41;;;;;;;14.69;6.57;;;;;;;-2.19;64.37;99477.46;363315;109;1962062;-71
2021/03/25 03:53:47;;;;;;;12.88;5.89;;;;;;;-2.21;64.43;99466.16;363884;110;1970006;-71
2021/03/25 03:55:10;;;;;;;13.37;6.30;;;;;;;-2.18;64.47;99476.48;362988;109;1963920;-70
2021/03/25 03:56:25;;;;;;;;;;;;;;;-2.18;64.53;99473.83;315558;111;2215835;-69
2021/03/25 03:57:38;;;;;;;13.16;5.44;;;;;;;-2.17;64.70;99479.96;314640;113;2737024;-71
2021/03/25 03:58:50;;;;;;;14.35;6.41;;;;;;;-2.18;64.38;99473.83;325974;113;2494956;-70
2021/03/25 04:00:09;;;;;;;13.56;5.92;;;;;;;-2.17;64.57;99469.38;349541;113;1962058;-70
2021/03/25 04:01:35;;;;;;;14.00;6.82;;;;;;;-2.17;64.34;99469.38;351800;113;1962084;-71
2021/03/25 04:02:56;;;;;;;15.21;7.02;;;;;;;-2.18;64.25;99467.70;310175;113;2813088;-71
2021/03/25 04:04:31;;;;;;;15.90;7.40;;;;;;;-2.19;64.39;99472.17;339142;117;1962068;-70
2021/03/25 04:05:42;;;;;;;14.27;6.66;;;;;;;-2.20;64.23;99473.12;331826;120;1962093;-71
2021/03/25 04:07:00;;;;;;;14.15;7.09;;;;;;;-2.20;64.54;99467.83;312448;113;2963057;-71
2021/03/25 04:08:24;;;;;;;11.82;6.04;;;;;;;-2.18;64.64;99470.36;321235;113;1962048;-69
2021/03/25 04:09:38;;;;;;;14.00;6.61;;;;;;;-2.19;64.50;99481.92;350322;113;1963965;-71
2021/03/25 04:11:01;;;;;;;13.43;6.71;;;;;;;-2.18;64.50;99479.12;350665;113;1961993;-70
2021/03/25 04:12:11;;;;;;;17.41;6.73;;;;;;;-2.16;64.46;99479.84;350625;113;1962091;-70
2021/03/25 04:13:27;;;;;;;13.53;6.01;;;;;;;-2.14;64.14;99474.41;335922;113;2195011;-70
2021/03/25 04:14:46;;;;;;;12.34;6.47;;;;;;;-2.15;64.03;99470.92;346470;113;1963959;-70
2021/03/25 04:15:55;;;;;;;16.24;6.98;;;;;;;-2.14;64.12;99477.91;349189;113;1961966;-72
2021/03/25 04:17:05;;;;;;;15.21;6.89;;;;;;;-2.10;64.11;99481.96;334471;115;1961999;-72
2021/03/25 04:18:14;;;;;;;16.18;7.12;;;;;;;-2.10;63.85;99476.67;323846;115;1962985;-71
2021/03/25 04:19:26;;;;;;;12.68;5.89;;;;;;;-2.07;63.73;99483.52;340513;115;1962004;-71
2021/03/25 04:20:46;;;;;;;14.76;6.63;;;;;;;-2.06;63.62;99479.91;351221;113;1970920;-71
2021/03/25 04:22:03;;;;;;;10.06;5.28;;;;;;;-2.04;63.57;99486.76;350765;113;1962986;-71
2021/03/25 04:23:23;;;;;;;12.08;5.82;;;;;;;-2.00;63.52;99488.16;343629;116;1962007;-71
2021/03/25 04:24:32;;;;;;;14.38;5.98;;;;;;;-2.00;63.44;99479.38;358202;111;1961926;-71
2021/03/25 04:25:44;;;;;;;11.88;5.93;;;;;;;-1.98;63.28;99485.39;348153;114;1963881;-71
2021/03/25 04:27:14;;;;;;;11.75;6.12;;;;;;;-1.96;63.26;99477.30;356540;111;1961871;-71
2021/03/25 04:28:36;;;;;;;11.80;5.56;;;;;;;-1.94;63.28;99478.02;351452;109;2222859;-70
2021/03/25 04:29:54;;;;;;;18.21;8.62;;;;;;;-1.93;63.14;99475.25;363721;109;1961980;-70
2021/03/25 04:31:00;;;;;;;15.17;7.79;;;;;;;-1.91;63.23;99475.94;362452;109;1964972;-70
2021/03/25 04:32:06;;;;;;;18.54;6.96;;;;;;;-1.86;63.20;99483.50;363505;109;1962942;-70
2021/03/25 04:33:18;;;;;;;13.24;6.58;;;;;;;-1.85;63.08;99479.90;326291;109;2702886;-70
2021/03/25 04:34:24;;;;;;;19.71;8.45;;;;;;;-1.82;63.09;99488.41;363300;109;1961971;-70
2021/03/25 04:35:31;;;;;;;22.28;7.47;;;;;;;-1.79;63.06;99482.84;363772;109;1962037;-70
2021/03/25 04:36:41;;;;;;;18.57;8.35;;;;;;;-1.76;62.84;99481.74;362489;109;1961940;-71
2021/03/25 04:37:48;;;;;;;16.95;7.15;;;;;;;-1.73;62.91;99485.94;361602;109;1962008;-70
2021/03/25 04:38:56;;;;;;;19.98;8.12;;;;;;;-1.71;62.71;99481.36;320106;109;2814963;-70
2021/03/25 04:40:05;;;;;;;19.13;8.67;;;;;;;-1.68;62.68;99481.09;363223;109;1963018;-71
2021/03/25 04:41:14;;;;;;;;;;;;;;;-1.67;62.58;99480.94;331962;109;2016804;-71
2021/03/25 04:42:21;;;;;;;15.34;8.73;;;;;;;-1.64;62.56;99491.30;363809;109;1961968;-70
2021/03/25 04:43:27;;;;;;;14.38;6.93;;;;;;;-1.62;62.44;99484.03;322361;109;2231981;-70
2021/03/25 04:44:39;;;;;;;14.85;7.17;;;;;;;-1.58;62.31;99484.63;363007;109;1961998;-71
2021/03/25 04:45:55;;;;;;;18.55;7.03;;;;;;;-1.55;62.33;99489.65;337643;109;2884947;-70
2021/03/25 04:47:22;;;;;;;13.50;6.43;;;;;;;-1.49;62.25;99485.63;332227;109;1968999;-69
2021/03/25 04:48:31;;;;;;;22.31;8.39;;;;;;;-1.44;62.08;99492.20;361560;109;1961974;-71
2021/03/25 04:49:40;;;;;;;19.86;7.48;;;;;;;-1.42;61.99;99484.13;361527;109;1961984;-70
2021/03/25 04:51:02;;;;;;;12.16;6.43;;;;;;;-1.38;61.88;99493.47;363015;109;1961989;-71
2021/03/25 04:52:11;;;;;;;16.06;7.28;;;;;;;-1.35;61.65;99488.77;348469;109;1961969;-70
2021/03/25 04:53:23;;;;;;;20.17;7.74;;;;;;;-1.31;61.49;99486.67;344873;109;1961987;-70
2021/03/25 04:54:33;;;;;;;17.13;8.56;;;;;;;-1.28;61.52;99477.61;361520;109;1962002;-71
2021/03/25 04:55:39;;;;;;;15.32;7.40;;;;;;;-1.24;61.45;99481.69;363401;109;1968984;-71
2021/03/25 04:56:44;;;;;;;18.31;6.61;;;;;;;-1.22;61.20;99480.55;346178;106;2336957;-71
2021/03/25 04:57:53;;;;;;;15.40;6.59;;;;;;;-1.19;61.08;99477.66;345942;106;1963972;-71
2021/03/25 04:59:00;;;;;;;18.20;7.41;;;;;;;-1.16;61.02;99485.33;333164;111;2223088;-71
2021/03/25 05:00:10;;;;;;;17.84;7.96;;;;;;;-1.13;60.90;99484.22;356506;113;1961991;-71
2021/03/25 05:01:22;;;;;;;14.01;6.78;;;;;;;-1.09;60.80;99487.42;364019;108;1963931;-72
2021/03/25 05:02:30;;;;;;;12.96;5.69;;;;;;;-1.07;60.74;99488.97;350191;108;1961904;-71
2021/03/25 05:03:37;;;;;;;21.52;6.61;;;;;;;-1.05;60.39;99489.67;339145;108;2498967;-71
2021/03/25 05:04:45;;;;;;;11.30;5.26;;;;;;;-1.64;60.46;99395.95;365376;108;1961934;-71
2021/03/25 05:05:53;;;;;;;16.27;6.21;;;;;;;-0.99;60.45;99486.47;366390;108;1960831;-71
2021/03/25 05:07:01;;;;;;;16.73;6.47;;;;;;;-0.96;60.35;99483.55;338688;107;2562853;-71
2021/03/25 05:08:10;;;;;;;16.23;6.38;;;;;;;-0.92;60.35;99489.43;360703;110;1960807;-71
2021/03/25 05:09:17;;;;;;;13.61;5.66;;;;;;;-0.87;60.20;99494.30;357641;111;1960959;-71
2021/03/25 05:10:32;;;;;;;16.35;6.41;;;;;;;-0.84;59.92;99486.93;315075;110;2224750;-71
2021/03/25 05:11:39;;;;;;;15.37;5.58;;;;;;;-0.78;59.73;99494.33;337439;108;1960688;-71
2021/03/25 05:12:45;;;;;;;20.89;8.17;;;;;;;-0.74;59.44;99489.57;361407;110;1960818;-70
2021/03/25 05:13:53;;;;;;;18.62;7.02;;;;;;;-0.71;59.61;99497.28;330477;108;2216801;-71
2021/03/25 05:15:14;;;;;;;17.33;7.22;;;;;;;-0.70;59.43;99494.47;365656;108;1960722;-71
2021/03/25 05:16:37;;;;;;;16.37;6.31;;;;;;;-0.66;59.50;99492.41;365941;108;1961854;-71
2021/03/25 05:18:06;;;;;;;13.37;6.37;;;;;;;-0.62;59.24;99498.25;365927;108;1961954;-71
2021/03/25 05:19:20;;;;;;;15.61;6.06;;;;;;;-0.60;59.03;99491.84;353124;112;1961943;-71
2021/03/25 05:20:42;;;;;;;18.22;6.81;;;;;;;-0.56;59.03;99495.88;365747;108;1962975;-71
2021/03/25 05:22:20;;;;;;;15.37;8.00;;;;;;;-0.51;59.07;99496.30;347321;107;1961960;-70
2021/03/25 05:23:29;;;;;;;15.48;6.69;;;;;;;-0.47;58.94;99491.56;339536;108;2489027;-70
2021/03/25 05:24:48;;;;;;;17.58;6.62;;;;;;;-0.41;58.75;99491.00;323637;110;2690964;-70
2021/03/25 05:26:01;;;;;;;16.79;6.61;;;;;;;-0.37;58.71;99500.38;313025;111;2835011;-70
2021/03/25 05:27:18;;;;;;;10.07;5.08;;;;;;;-0.33;58.58;99487.65;361166;110;1961988;-71
2021/03/25 05:28:27;;;;;;;11.68;5.54;;;;;;;-0.27;58.27;99495.04;335251;108;1961837;-70
2021/03/25 05:29:35;;;;;;;17.17;6.76;;;;;;;-0.24;58.30;99500.92;324914;108;2218999;-71
2021/03/25 05:30:46;;;;;;;14.80;6.44;;;;;;;-0.19;58.23;99494.34;334405;108;1961915;-71
2021/03/25 05:31:53;;;;;;;15.66;6.00;;;;;;;-0.13;57.99;99499.07;334518;106;1962063;-70